aviador You're here:

KDFW Decoded Metar

DALLAS-FORT WORTH in TX, USA
Report Time2017-08-19 13:53:00
UTC Time2017-08-19 14:56:20
Flight Rules vfr VFR
Wind210° at 10 kt
W.Decomp.*RWY 18: 9.1 kt HW 4.1 kt RCW
RWY 17: 8.3 kt HW 5.6 kt RCW
RWY 13: 2.8 kt HW 9.6 kt RCW
W.Rank210° ranks 15
Current wind is above 210° avg. (9.3)
Visibility9999 m
Phenomena:N/A
Clouds:Few 250 Hf
Expected CloudBase > 2,400 ft AGL from Temp-Dew spread
CeilingNone
Temp29°C (ISA +15)
Dew Point23°C (70% RH)
Heat Index32.7°C
QNH1016 hPa
Density Alt2,579 ft
Elevation571 ft
Report Wrong Elevation
Raw Report
METAR KDFW 191353Z 21010KT 10SM FEW250 29/23 A2999 RMK AO2 SLP146 T02890228=

Extra information for KDFW:More info

Metar Taf Metar & Taf Last 4 Metars F.Rules Stats Wind Profile Meteogram Temp Stats Airport Information Weather charts Add Link Nearby VenuesMetar ALERT Operation Metar Decoded Social comments

AIRNAV info for KDFW